Time;durP1;ratioP1;P1;durP2;ratioP2;P2;SDS_P1;SDS_P2;PMS_P1;PMS_P2;Temp;Humidity;BMP_temperature;BMP_pressure;BME280_temperature;BME280_humidity;BME280_pressure;Samples;Min_cycle;Max_cycle;Signal;HPM_P1;HPM_P2
2023/07/02 07:03:22;;;;;;;9.75;8.80;;;;;;;23.23;100.00;94227.44;5044406;28;20418;-92
2023/07/02 07:05:48;;;;;;;13.82;8.45;;;;;;;23.76;100.00;94212.81;5105828;28;20051;-93
2023/07/02 07:08:14;;;;;;;8.93;8.13;;;;;;;23.81;100.00;94189.78;5109520;28;20031;-93
2023/07/02 07:10:40;;;;;;;8.27;7.47;;;;;;;23.77;100.00;94214.38;5125975;28;20023;-93
2023/07/02 07:13:06;;;;;;;9.45;7.97;;;;;;;22.39;100.00;94233.22;5126907;28;20023;-87
2023/07/02 07:15:34;;;;;;;9.93;8.63;;;;;;;22.09;100.00;94243.72;5125373;28;20028;-92
2023/07/02 07:18:00;;;;;;;;;;;;;;;22.07;100.00;94254.50;5127311;28;20024;-88
2023/07/02 07:20:25;;;;;;;9.00;8.20;;;;;;;22.18;100.00;94271.97;5119185;28;19919;-88
2023/07/02 07:22:51;;;;;;;8.80;8.10;;;;;;;22.58;100.00;94266.78;5105663;28;20031;-91
2023/07/02 07:25:16;;;;;;;12.70;8.30;;;;;;;22.74;100.00;94266.81;5105954;28;20070;-89
2023/07/02 07:27:42;;;;;;;10.35;9.52;;;;;;;22.37;100.00;94251.97;5104763;28;20055;-86
2023/07/02 07:30:07;;;;;;;9.68;8.85;;;;;;;22.34;100.00;94233.22;5105833;28;20027;-89
2023/07/02 07:32:33;;;;;;;9.93;8.80;;;;;;;23.10;100.00;94244.66;5104254;28;20039;-85
2023/07/02 07:34:58;;;;;;;10.20;9.20;;;;;;;23.50;100.00;94233.25;5105258;28;20031;-92
2023/07/02 07:37:25;;;;;;;8.70;7.95;;;;;;;23.61;100.00;94211.78;5086937;28;20055;-90
2023/07/02 07:39:50;;;;;;;9.15;8.30;;;;;;;24.27;100.00;94206.25;5088639;28;20020;-87
2023/07/02 07:42:17;;;;;;;8.55;7.85;;;;;;;24.30;100.00;94199.59;5087920;28;20074;-88
2023/07/02 07:44:46;;;;;;;8.55;7.72;;;;;;;24.17;100.00;94195.72;5104967;28;20019;-88
2023/07/02 07:47:11;;;;;;;10.93;8.68;;;;;;;24.37;100.00;94197.44;5105416;28;20084;-91
2023/07/02 07:49:37;;;;;;;8.63;7.72;;;;;;;25.08;100.00;94197.69;5104247;28;20019;-91
2023/07/02 07:52:03;;;;;;;7.63;6.90;;;;;;;24.80;100.00;94193.94;5105102;28;20024;-89
2023/07/02 07:54:29;;;;;;;8.02;7.22;;;;;;;24.83;100.00;94171.44;5092864;28;20056;-91
2023/07/02 07:56:54;;;;;;;8.52;7.53;;;;;;;25.51;100.00;94201.28;5092121;28;20036;-91
2023/07/02 07:59:20;;;;;;;7.57;6.65;;;;;;;26.36;100.00;94193.38;5090744;28;20416;-88
2023/07/02 08:01:46;;;;;;;7.22;6.53;;;;;;;26.24;100.00;94177.84;5090969;28;20055;-89
2023/07/02 08:04:12;;;;;;;7.80;7.05;;;;;;;26.51;100.00;94193.94;5074420;28;20027;-88
2023/07/02 08:06:37;;;;;;;6.57;5.95;;;;;;;26.78;100.00;94208.44;5090521;28;20027;-93
2023/07/02 08:09:03;;;;;;;7.07;6.47;;;;;;;27.20;100.00;94201.09;5074077;28;20559;-90
2023/07/02 08:11:29;;;;;;;6.68;6.07;;;;;;;26.89;100.00;94196.56;5073002;28;20385;-91
2023/07/02 08:13:54;;;;;;;6.07;5.47;;;;;;;26.18;100.00;94192.28;5074149;28;20032;-88
2023/07/02 08:16:20;;;;;;;6.47;5.88;;;;;;;26.52;100.00;94186.75;5089915;28;20057;-85
2023/07/02 08:18:45;;;;;;;6.82;6.10;;;;;;;25.97;100.00;94182.97;5073729;28;20028;-90
2023/07/02 08:21:11;;;;;;;6.40;5.90;;;;;;;25.92;100.00;94180.38;5073593;28;20440;-89
2023/07/02 08:23:37;;;;;;;6.70;6.10;;;;;;;26.70;100.00;94183.28;5073475;28;20520;-90
2023/07/02 08:26:03;;;;;;;6.95;6.35;;;;;;;27.12;98.97;94177.03;5074051;28;20016;-88
2023/07/02 08:28:28;;;;;;;5.95;5.45;;;;;;;26.57;98.99;94173.38;5073125;28;20031;-91
2023/07/02 08:30:54;;;;;;;6.20;5.60;;;;;;;26.37;96.95;94179.78;5075029;28;20024;-87
2023/07/02 08:33:20;;;;;;;5.90;5.40;;;;;;;26.13;100.00;94176.41;5090910;28;20024;-90
2023/07/02 08:35:46;;;;;;;7.95;5.32;;;;;;;26.32;100.00;94179.09;5090383;28;20115;-89
2023/07/02 08:38:12;;;;;;;6.72;5.90;;;;;;;26.22;100.00;94179.22;5073081;28;20077;-89
2023/07/02 08:40:37;;;;;;;6.13;5.53;;;;;;;26.20;100.00;94166.22;5073509;28;20077;-90
2023/07/02 08:43:02;;;;;;;6.43;5.93;;;;;;;26.13;100.00;94171.09;5102034;28;20073;-92
2023/07/02 08:45:28;;;;;;;6.07;5.63;;;;;;;26.10;100.00;94176.97;5093489;28;20036;-88
2023/07/02 08:47:56;;;;;;;6.18;5.68;;;;;;;25.76;100.00;94181.63;5077336;28;20036;-92
2023/07/02 08:50:22;;;;;;;6.30;5.70;;;;;;;26.52;100.00;94179.56;5093272;28;20028;-92
2023/07/02 08:52:48;;;;;;;6.25;5.65;;;;;;;25.49;100.00;94177.72;5076751;28;20028;-91
2023/07/02 08:55:13;;;;;;;5.88;5.30;;;;;;;25.68;100.00;94170.59;5111634;28;20030;-93
2023/07/02 08:57:42;;;;;;;6.13;5.63;;;;;;;25.72;99.28;94162.84;5093829;28;20388;-92
2023/07/02 09:00:12;;;;;;;5.75;5.18;;;;;;;26.11;100.00;94167.91;5111335;28;20087;-90
2023/07/02 09:02:38;;;;;;;5.68;4.80;;;;;;;26.48;100.00;94159.97;5112088;28;20059;-91
2023/07/02 09:05:04;;;;;;;6.22;4.88;;;;;;;26.23;100.00;94163.00;5092793;28;20456;-88
2023/07/02 09:07:30;;;;;;;5.53;5.00;;;;;;;26.57;96.35;94171.53;5110612;28;20024;-91
2023/07/02 09:09:55;;;;;;;4.75;4.40;;;;;;;26.96;98.41;94162.44;5076879;28;20062;-91
2023/07/02 09:12:31;;;;;;;5.40;4.90;;;;;;;26.85;94.70;94163.66;5092346;28;20032;-87
2023/07/02 09:15:06;;;;;;;5.70;5.05;;;;;;;26.78;98.03;94164.00;5093840;28;20132;-94
2023/07/02 09:17:36;;;;;;;5.00;4.60;;;;;;;27.39;97.76;94155.78;5093649;28;20072;-91
2023/07/02 09:20:06;;;;;;;5.22;4.82;;;;;;;26.66;95.10;94159.16;5075701;28;20492;-93
2023/07/02 09:22:32;;;;;;;6.00;5.40;;;;;;;26.33;93.03;94141.59;5093908;28;20035;-90
2023/07/02 09:25:00;;;;;;;5.88;5.38;;;;;;;26.45;100.00;94152.59;5092272;28;20813;-90
2023/07/02 09:27:38;;;;;;;6.13;5.57;;;;;;;26.88;100.00;94149.78;5111447;28;20039;-91
2023/07/02 09:30:13;;;;;;;5.30;4.80;;;;;;;26.59;99.96;94155.28;5092709;28;20028;-92
2023/07/02 09:32:39;;;;;;;5.93;5.43;;;;;;;26.11;100.00;94151.97;5093540;28;20038;-92
2023/07/02 09:35:04;;;;;;;6.60;4.90;;;;;;;26.33;95.58;94152.22;5092779;28;20028;-89
2023/07/02 09:37:30;;;;;;;5.00;4.60;;;;;;;26.50;100.00;94157.03;5092753;28;20019;-90
2023/07/02 09:39:56;;;;;;;5.55;5.05;;;;;;;26.58;99.92;94156.38;5093068;28;20030;-93
2023/07/02 09:42:22;;;;;;;7.00;5.40;;;;;;;26.75;100.00;94143.31;5091776;28;20049;-95
2023/07/02 09:44:48;;;;;;;5.18;4.70;;;;;;;26.68;98.05;94149.00;5093005;28;20549;-91
2023/07/02 09:47:17;;;;;;;5.57;4.90;;;;;;;26.68;98.83;94151.66;5074771;28;20447;-91
2023/07/02 09:50:05;;;;;;;6.30;5.50;;;;;;;26.37;99.92;94149.78;5093214;28;20095;-90
2023/07/02 09:52:31;;;;;;;6.80;5.03;;;;;;;26.00;98.58;94142.59;5093040;28;20035;-89
2023/07/02 09:54:57;;;;;;;5.47;4.97;;;;;;;26.04;96.37;94146.25;5109588;28;20028;-89
2023/07/02 09:57:23;;;;;;;5.55;5.05;;;;;;;25.86;99.07;94149.66;5092573;28;20114;-90
2023/07/02 09:59:50;;;;;;;5.30;4.80;;;;;;;25.76;98.15;94144.47;5091853;28;20051;-87
2023/07/02 10:02:15;;;;;;;6.13;4.75;;;;;;;26.20;100.00;94144.97;5092426;28;20027;-92
2023/07/02 10:04:42;;;;;;;5.80;5.20;;;;;;;26.24;98.59;94138.00;5091519;28;20492;-90
2023/07/02 10:07:08;;;;;;;5.60;5.10;;;;;;;26.40;95.35;94143.88;5092219;28;20124;-90
2023/07/02 10:09:38;;;;;;;5.38;4.97;;;;;;;26.06;93.44;94146.75;5091967;28;20015;-90
2023/07/02 10:12:20;;;;;;;5.18;4.75;;;;;;;26.09;100.00;94148.81;5074332;28;20015;-86
2023/07/02 10:14:47;;;;;;;5.22;4.78;;;;;;;25.84;100.00;94141.22;5092381;28;20471;-90
2023/07/02 10:17:29;;;;;;;5.35;4.70;;;;;;;26.37;100.00;94145.25;5090634;28;20560;-88
2023/07/02 10:19:56;;;;;;;5.63;5.03;;;;;;;26.12;98.15;94142.94;5092347;28;20059;-87
2023/07/02 10:22:22;;;;;;;6.68;4.97;;;;;;;26.03;99.42;94139.34;5074407;28;20063;-89
2023/07/02 10:24:57;;;;;;;5.25;4.78;;;;;;;26.27;98.25;94128.66;5075085;28;20100;-89
2023/07/02 10:27:34;;;;;;;5.88;5.38;;;;;;;26.61;100.00;94127.34;5092155;28;20037;-92
2023/07/02 10:29:59;;;;;;;5.47;4.95;;;;;;;26.46;94.47;94118.81;5090950;28;20024;-88
2023/07/02 10:32:28;;;;;;;5.20;4.75;;;;;;;25.57;99.15;94124.03;5091634;28;20054;-90
2023/07/02 10:34:54;;;;;;;6.03;5.10;;;;;;;26.17;100.00;94119.00;5091069;28;20024;-89
2023/07/02 10:37:20;;;;;;;4.80;4.40;;;;;;;25.88;99.90;94113.03;5092023;28;20024;-89
2023/07/02 10:39:46;;;;;;;6.18;5.63;;;;;;;25.47;98.81;94112.69;5092132;28;20110;-92
2023/07/02 10:42:12;;;;;;;5.50;5.00;;;;;;;26.24;100.00;94111.44;5108931;28;20135;-86
2023/07/02 10:44:51;;;;;;;5.28;4.78;;;;;;;25.06;97.96;94112.38;5092386;28;20183;-89
2023/07/02 10:47:17;;;;;;;5.68;5.18;;;;;;;26.16;96.20;94098.84;5090356;28;20024;-91
2023/07/02 10:49:43;;;;;;;5.40;4.90;;;;;;;26.58;94.16;94106.69;5092138;28;20023;-89
2023/07/02 10:52:08;;;;;;;5.18;4.78;;;;;;;26.76;96.57;94102.38;5090381;28;20530;-89
2023/07/02 10:54:41;;;;;;;5.47;4.95;;;;;;;26.42;95.10;94083.31;5110652;28;20038;-96
2023/07/02 10:57:08;;;;;;;5.68;5.20;;;;;;;26.21;89.54;94104.06;5091084;28;20128;-87
2023/07/02 10:59:34;;;;;;;5.72;4.80;;;;;;;26.20;93.98;94094.50;5074168;28;20035;-89
2023/07/02 11:02:02;;;;;;;6.93;5.03;;;;;;;26.43;97.87;94095.50;5109742;28;20028;-89
2023/07/02 11:04:28;;;;;;;5.22;4.82;;;;;;;25.19;98.12;94098.44;5091499;28;20502;-91
2023/07/02 11:06:53;;;;;;;5.40;4.53;;;;;;;26.02;98.33;94092.63;5091856;28;20028;-90
2023/07/02 11:09:23;;;;;;;7.47;4.93;;;;;;;26.05;100.00;94097.38;5090683;28;20027;-90
2023/07/02 11:11:53;;;;;;;5.05;4.65;;;;;;;25.49;100.00;94098.13;5110170;28;20028;-89
2023/07/02 11:14:41;;;;;;;5.80;5.20;;;;;;;25.62;100.00;94094.75;5073842;28;20417;-85
2023/07/02 11:17:07;;;;;;;5.45;4.95;;;;;;;25.92;96.06;94085.59;5091182;28;20032;-91
2023/07/02 11:19:33;;;;;;;5.22;4.82;;;;;;;25.68;100.00;94090.19;5109545;28;20024;-90
2023/07/02 11:21:59;;;;;;;5.10;4.70;;;;;;;26.04;95.77;94088.59;5073207;28;20058;-86
2023/07/02 11:24:35;;;;;;;7.22;4.93;;;;;;;26.23;95.12;94086.00;5074508;28;20098;-92
2023/07/02 11:27:02;;;;;;;5.82;5.32;;;;;;;25.89;91.93;94080.88;5090560;28;20024;-88
2023/07/02 11:29:30;;;;;;;6.20;4.85;;;;;;;26.07;92.48;94088.03;5093738;28;20057;-89
2023/07/02 11:32:05;;;;;;;;;;;;;;;26.27;97.05;94092.28;5095339;28;20055;-89
2023/07/02 11:34:31;;;;;;;5.47;4.82;;;;;;;26.17;100.00;94087.13;5094120;28;19998;-89
2023/07/02 11:36:56;;;;;;;7.63;4.57;;;;;;;26.17;96.13;94081.81;5113022;28;20103;-90
2023/07/02 11:39:22;;;;;;;5.38;4.55;;;;;;;26.36;93.60;94076.50;5093472;28;20055;-88
2023/07/02 11:41:48;;;;;;;5.28;4.78;;;;;;;26.38;94.52;94083.09;5094281;28;20031;-87
2023/07/02 11:44:14;;;;;;;4.97;4.57;;;;;;;26.56;93.62;94082.25;5075821;28;20096;-87
2023/07/02 11:46:39;;;;;;;4.80;4.30;;;;;;;26.79;91.12;94072.56;5091457;28;20040;-89
2023/07/02 11:49:04;;;;;;;6.07;5.47;;;;;;;26.86;94.19;94074.88;5092174;28;20579;-88
2023/07/02 11:51:31;;;;;;;5.63;5.13;;;;;;;26.83;100.00;94086.09;5075768;28;20092;-89
2023/07/02 11:53:57;;;;;;;5.10;4.60;;;;;;;27.19;97.37;94076.38;5075543;28;20024;-88
2023/07/02 11:56:22;;;;;;;5.28;4.78;;;;;;;27.36;94.51;94070.44;5091989;28;20030;-89
2023/07/02 11:58:48;;;;;;;5.13;4.68;;;;;;;26.55;91.28;94066.63;5075516;28;20417;-90
2023/07/02 12:01:13;;;;;;;5.47;5.07;;;;;;;26.73;97.67;94069.22;5092245;28;20026;-91
2023/07/02 12:03:38;;;;;;;6.00;5.38;;;;;;;26.64;92.55;94065.66;5111124;28;20447;-91
2023/07/02 12:06:05;;;;;;;5.13;4.65;;;;;;;26.79;90.07;94066.44;5110704;28;20396;-89
2023/07/02 12:08:30;;;;;;;5.18;4.75;;;;;;;27.25;89.58;94064.56;5092060;28;20051;-90
2023/07/02 12:10:56;;;;;;;5.30;4.90;;;;;;;27.73;90.86;94063.06;5092227;28;20062;-89
2023/07/02 12:13:22;;;;;;;5.80;5.28;;;;;;;27.11;86.84;94069.06;5091936;28;20031;-90
2023/07/02 12:15:49;;;;;;;6.13;4.95;;;;;;;26.62;86.12;94073.09;5090864;28;20080;-90
2023/07/02 12:18:15;;;;;;;5.10;4.70;;;;;;;27.06;82.89;94069.19;5074788;28;20032;-87
2023/07/02 12:20:40;;;;;;;5.35;4.95;;;;;;;27.19;88.50;94068.41;5091621;28;20043;-87
2023/07/02 12:23:06;;;;;;;5.47;4.90;;;;;;;27.10;91.24;94068.28;5110239;28;20028;-89
2023/07/02 12:25:31;;;;;;;5.30;4.82;;;;;;;27.16;91.81;94067.09;5075268;28;20031;-90
2023/07/02 12:27:57;;;;;;;5.47;5.07;;;;;;;27.11;95.53;94063.75;5091771;28;20054;-88
2023/07/02 12:30:23;;;;;;;5.00;4.60;;;;;;;27.04;95.76;94069.47;5110725;28;20467;-92
2023/07/02 12:32:48;;;;;;;7.53;4.68;;;;;;;27.19;94.87;94071.06;5109975;28;20176;-89
2023/07/02 12:35:14;;;;;;;5.10;4.70;;;;;;;27.38;92.08;94068.28;5092156;28;20557;-91
2023/07/02 12:37:44;;;;;;;5.00;4.60;;;;;;;27.42;93.42;94070.03;5091735;28;20020;-92
2023/07/02 12:40:10;;;;;;;5.60;4.88;;;;;;;27.34;92.81;94065.44;5075339;28;20093;-87
2023/07/02 12:42:36;;;;;;;5.38;4.97;;;;;;;27.46;91.32;94068.41;5091884;28;20067;-88
2023/07/02 12:45:02;;;;;;;5.55;5.05;;;;;;;27.18;87.22;94050.84;5092226;28;20038;-92
2023/07/02 12:47:28;;;;;;;6.88;5.15;;;;;;;27.19;80.67;94063.88;5092154;28;20024;-88
2023/07/02 12:49:53;;;;;;;5.45;4.95;;;;;;;27.79;83.30;94054.94;5091968;28;20027;-91
2023/07/02 12:52:19;;;;;;;5.82;5.32;;;;;;;27.98;78.66;94060.91;5110319;28;20031;-89
2023/07/02 12:54:44;;;;;;;5.18;4.60;;;;;;;27.91;79.24;94065.84;5091680;28;20102;-91
2023/07/02 12:57:10;;;;;;;6.65;5.47;;;;;;;27.84;85.43;94063.59;5091690;28;20043;-87
2023/07/02 12:59:35;;;;;;;6.07;5.50;;;;;;;27.15;88.47;94080.72;5109595;28;20024;-86
2023/07/02 13:02:00;;;;;;;7.55;5.47;;;;;;;26.99;92.51;94077.53;5109958;28;20522;-91
2023/07/02 13:04:26;;;;;;;10.25;5.55;;;;;;;27.04;99.73;94081.97;5110406;28;20443;-93
2023/07/02 13:06:51;;;;;;;5.97;5.40;;;;;;;27.02;97.63;94081.47;5091283;28;20023;-88
2023/07/02 13:09:17;;;;;;;7.10;6.00;;;;;;;26.86;97.14;94088.94;5091862;28;20106;-88
2023/07/02 13:11:42;;;;;;;6.97;6.25;;;;;;;26.75;94.59;94082.19;5091713;28;20058;-87
2023/07/02 13:14:08;;;;;;;7.38;6.13;;;;;;;26.92;97.96;94081.66;5110085;28;20024;-89
2023/07/02 13:16:33;;;;;;;7.07;6.18;;;;;;;26.69;97.04;94089.47;5110203;28;20023;-87
2023/07/02 13:19:01;;;;;;;8.50;6.70;;;;;;;26.38;95.12;94074.31;5092096;28;20026;-84
2023/07/02 13:21:26;;;;;;;6.15;5.55;;;;;;;26.47;96.46;94075.25;5091885;28;20110;-91
2023/07/02 13:23:52;;;;;;;7.47;6.05;;;;;;;26.39;96.53;94074.06;5109798;28;20062;-89
2023/07/02 13:26:17;;;;;;;8.68;5.90;;;;;;;26.36;94.76;94068.53;5091272;28;20020;-91
2023/07/02 13:28:43;;;;;;;7.07;5.85;;;;;;;26.57;98.64;94062.56;5109722;28;20031;-90
2023/07/02 13:31:10;;;;;;;6.78;6.13;;;;;;;26.81;92.64;94059.03;5109660;28;20047;-82
2023/07/02 13:33:35;;;;;;;6.13;5.63;;;;;;;26.76;89.34;94065.16;5109625;28;20027;-89
2023/07/02 13:36:00;;;;;;;7.38;6.50;;;;;;;26.63;88.19;94061.41;5091103;28;20391;-86
2023/07/02 13:38:26;;;;;;;6.85;6.22;;;;;;;26.54;88.69;94065.03;5090836;28;20448;-91
2023/07/02 13:40:52;;;;;;;7.45;6.30;;;;;;;26.59;92.49;94063.06;5109040;28;20020;-88
2023/07/02 13:43:17;;;;;;;6.40;5.82;;;;;;;26.24;91.21;94058.34;5108993;28;20078;-85
2023/07/02 13:45:43;;;;;;;6.53;5.93;;;;;;;26.09;86.74;94054.03;5109155;28;20024;-85
2023/07/02 13:48:08;;;;;;;5.97;5.45;;;;;;;25.92;92.43;94060.91;5090315;28;20019;-87
2023/07/02 13:50:33;;;;;;;8.00;5.82;;;;;;;25.85;97.30;94063.94;5109127;28;20510;-88
2023/07/02 13:52:59;;;;;;;6.00;5.35;;;;;;;25.56;97.15;94052.66;5090636;28;20036;-85
2023/07/02 13:55:27;;;;;;;6.07;5.57;;;;;;;26.04;95.86;94063.94;5090709;28;20019;-88
2023/07/02 13:57:54;;;;;;;8.55;5.90;;;;;;;26.26;95.29;94047.44;5090413;28;20076;-91
2023/07/02 14:00:20;;;;;;;5.43;4.95;;;;;;;26.18;91.91;94046.22;5108917;28;20420;-88
2023/07/02 14:02:45;;;;;;;6.00;5.50;;;;;;;26.05;86.76;94036.31;5091007;28;20088;-89
2023/07/02 14:05:11;;;;;;;5.80;5.30;;;;;;;26.20;90.13;94036.09;5108523;28;20405;-84
2023/07/02 14:07:37;;;;;;;5.90;5.40;;;;;;;26.40;89.32;94050.91;5090991;28;20031;-83
2023/07/02 14:10:03;;;;;;;5.95;5.45;;;;;;;26.52;89.80;94051.25;5108666;28;20023;-84
2023/07/02 14:12:28;;;;;;;5.85;5.35;;;;;;;26.51;90.02;94053.13;5090645;28;20089;-87
2023/07/02 14:14:54;;;;;;;9.73;5.95;;;;;;;26.29;89.67;94047.66;5108963;28;20027;-87
2023/07/02 14:17:19;;;;;;;5.97;5.45;;;;;;;26.38;89.68;94061.03;5089856;28;20045;-88
2023/07/02 14:19:45;;;;;;;6.18;5.65;;;;;;;26.51;90.19;94058.44;5108585;28;20030;-86
2023/07/02 14:22:11;;;;;;;6.55;5.93;;;;;;;26.45;90.15;94064.91;5089827;28;20435;-84
2023/07/02 14:24:38;;;;;;;5.82;5.32;;;;;;;26.47;87.49;94073.38;5108304;28;20495;-90
2023/07/02 14:27:04;;;;;;;6.07;5.57;;;;;;;26.32;86.24;94065.66;5108819;28;20035;-84
2023/07/02 14:29:29;;;;;;;6.43;5.93;;;;;;;26.34;89.45;94050.22;5090557;28;20032;-92
2023/07/02 14:31:55;;;;;;;6.07;5.57;;;;;;;26.22;89.46;94059.72;5109280;28;20024;-85
2023/07/02 14:34:20;;;;;;;6.95;6.35;;;;;;;26.00;91.53;94063.75;5109046;28;20081;-91
2023/07/02 14:36:46;;;;;;;6.15;5.60;;;;;;;25.86;91.21;94059.41;5090793;28;20110;-87
2023/07/02 14:39:11;;;;;;;6.97;6.00;;;;;;;25.53;95.93;94072.59;5090389;28;20024;-86
2023/07/02 14:41:37;;;;;;;6.75;6.15;;;;;;;25.29;95.39;94071.81;5090116;28;20102;-94
2023/07/02 14:44:03;;;;;;;6.60;6.10;;;;;;;25.20;94.62;94083.34;5074094;28;20043;-83
2023/07/02 14:46:29;;;;;;;6.28;5.72;;;;;;;25.17;96.16;94088.13;5073327;28;20028;-88
2023/07/02 14:48:55;;;;;;;6.55;5.78;;;;;;;24.97;97.91;94079.59;5090959;28;20050;-87
2023/07/02 14:51:21;;;;;;;6.63;6.03;;;;;;;24.83;100.00;94089.28;5090424;28;20504;-88
2023/07/02 14:53:46;;;;;;;6.97;6.38;;;;;;;24.69;100.00;94089.13;5090099;28;20404;-90
2023/07/02 14:56:12;;;;;;;7.90;6.13;;;;;;;24.66;100.00;94097.63;5108322;28;20031;-88
2023/07/02 14:58:37;;;;;;;6.45;5.82;;;;;;;24.55;100.00;94089.00;5107976;28;20047;-91
2023/07/02 15:01:03;;;;;;;7.18;6.05;;;;;;;24.61;100.00;94105.63;5089671;28;20035;-88
2023/07/02 15:03:29;;;;;;;7.78;6.95;;;;;;;24.53;100.00;94112.31;5073350;28;20080;-89
2023/07/02 15:06:04;;;;;;;7.55;6.47;;;;;;;24.41;100.00;94111.88;5094141;28;20020;-87
2023/07/02 15:08:30;;;;;;;7.22;6.63;;;;;;;24.41;100.00;94109.22;5093898;28;20477;-86
2023/07/02 15:10:55;;;;;;;7.50;6.35;;;;;;;24.38;100.00;94115.06;5111741;28;20028;-80
2023/07/02 15:13:21;;;;;;;7.18;6.60;;;;;;;24.29;100.00;94103.50;5111444;28;20031;-80
2023/07/02 15:15:48;;;;;;;7.43;6.82;;;;;;;24.33;100.00;94104.53;5112140;28;20026;-86
2023/07/02 15:18:14;;;;;;;7.22;6.53;;;;;;;24.27;100.00;94097.69;5111712;28;20043;-83
2023/07/02 15:20:40;;;;;;;6.35;5.85;;;;;;;24.27;100.00;94113.59;5111399;28;20023;-87
2023/07/02 15:23:05;;;;;;;7.03;6.20;;;;;;;24.20;100.00;94105.16;5076190;28;20036;-86
2023/07/02 15:25:31;;;;;;;6.90;6.28;;;;;;;24.26;100.00;94125.25;5111140;28;20035;-91
2023/07/02 15:27:57;;;;;;;7.25;6.57;;;;;;;24.16;100.00;94111.28;5111501;28;20523;-86
2023/07/02 15:30:22;;;;;;;6.55;5.88;;;;;;;24.25;100.00;94106.97;5092943;28;20031;-84
2023/07/02 15:32:48;;;;;;;6.88;5.95;;;;;;;24.26;100.00;94111.19;5092950;28;20015;-86
2023/07/02 15:35:13;;;;;;;6.22;5.65;;;;;;;24.14;100.00;94103.63;5092762;28;20023;-85
2023/07/02 15:37:41;;;;;;;6.85;5.68;;;;;;;24.02;100.00;94105.75;5110779;28;20028;-88
2023/07/02 15:40:07;;;;;;;6.18;5.53;;;;;;;24.03;100.00;94110.00;5111469;28;20096;-87
2023/07/02 15:42:33;;;;;;;6.60;6.10;;;;;;;23.89;100.00;94106.41;5089560;28;20044;-91
2023/07/02 15:44:59;;;;;;;6.57;6.07;;;;;;;23.88;100.00;94110.09;5089768;28;20028;-84
2023/07/02 15:47:25;;;;;;;6.60;6.00;;;;;;;24.03;100.00;94117.94;5089019;28;20028;-85
2023/07/02 15:49:51;;;;;;;8.77;6.30;;;;;;;24.21;100.00;94117.31;5089637;28;20089;-90
2023/07/02 15:52:17;;;;;;;8.73;6.30;;;;;;;24.33;100.00;94117.78;5090622;28;20031;-86
2023/07/02 15:54:42;;;;;;;6.45;5.95;;;;;;;24.37;100.00;94099.47;5089333;28;20032;-81
2023/07/02 15:57:08;;;;;;;6.47;5.88;;;;;;;24.24;100.00;94110.69;5090735;28;20443;-91
2023/07/02 15:59:35;;;;;;;6.78;6.07;;;;;;;24.57;100.00;94112.53;5089303;28;20056;-84
2023/07/02 16:02:01;;;;;;;7.55;5.68;;;;;;;24.74;100.00;94104.19;5089221;28;20024;-87
2023/07/02 16:04:27;;;;;;;6.90;6.22;;;;;;;24.65;100.00;94110.09;5089069;28;20028;-84
2023/07/02 16:06:52;;;;;;;6.78;6.03;;;;;;;24.34;100.00;94107.97;5090484;28;20024;-84
2023/07/02 16:09:18;;;;;;;8.10;6.32;;;;;;;24.35;100.00;94112.19;5091298;28;20092;-86
2023/07/02 16:11:44;;;;;;;6.50;5.80;;;;;;;24.19;100.00;94116.00;5090310;28;20032;-85
2023/07/02 16:14:12;;;;;;;6.65;6.15;;;;;;;24.24;100.00;94122.06;5090121;28;20392;-87
2023/07/02 16:16:42;;;;;;;6.40;5.80;;;;;;;24.28;100.00;94122.28;5088941;28;20139;-84
2023/07/02 16:19:09;;;;;;;7.18;6.47;;;;;;;24.33;100.00;94119.63;5089956;28;20127;-86
2023/07/02 16:21:36;;;;;;;6.70;6.00;;;;;;;24.09;100.00;94117.63;5071421;28;20028;-87
2023/07/02 16:24:03;;;;;;;5.85;5.45;;;;;;;24.05;100.00;94115.81;5090176;28;20039;-86
2023/07/02 16:26:29;;;;;;;8.85;5.85;;;;;;;24.05;100.00;94118.44;5089066;28;20405;-89
2023/07/02 16:28:54;;;;;;;6.90;6.30;;;;;;;24.03;100.00;94118.75;5088538;28;20062;-83
2023/07/02 16:31:19;;;;;;;7.28;6.13;;;;;;;24.05;100.00;94129.81;5090139;28;20032;-88
2023/07/02 16:33:45;;;;;;;7.20;6.13;;;;;;;24.08;100.00;94131.16;5089643;28;20374;-81
2023/07/02 16:36:12;;;;;;;7.10;6.47;;;;;;;23.95;100.00;94134.41;5088444;28;20436;-85
2023/07/02 16:38:37;;;;;;;7.13;6.50;;;;;;;23.93;100.00;94125.94;5088592;28;20028;-84
2023/07/02 16:41:05;;;;;;;6.90;6.05;;;;;;;23.96;100.00;94138.63;5089938;28;20089;-87
2023/07/02 16:43:31;;;;;;;7.80;7.07;;;;;;;23.88;100.00;94144.50;5101869;28;20039;-85
2023/07/02 16:45:57;;;;;;;7.68;6.97;;;;;;;23.82;100.00;94150.88;5109886;28;20032;-84
2023/07/02 16:48:23;;;;;;;7.90;6.82;;;;;;;23.76;100.00;94138.75;5074745;28;20580;-86
2023/07/02 16:50:55;;;;;;;7.55;6.93;;;;;;;23.71;100.00;94154.63;5109414;28;20110;-82
2023/07/02 16:53:20;;;;;;;8.23;7.45;;;;;;;23.71;100.00;94157.28;5109691;28;20111;-83
2023/07/02 16:55:46;;;;;;;10.65;6.43;;;;;;;23.53;100.00;94156.84;5109345;28;20110;-85
2023/07/02 16:58:12;;;;;;;6.63;6.13;;;;;;;23.54;100.00;94155.75;5109574;28;20031;-84
2023/07/02 17:00:37;;;;;;;7.65;6.55;;;;;;;23.54;100.00;94158.41;5109552;28;20484;-85
2023/07/02 17:03:03;;;;;;;7.18;6.28;;;;;;;23.58;100.00;94163.94;5109033;28;20526;-85
2023/07/02 17:05:29;;;;;;;11.25;6.68;;;;;;;23.43;100.00;94161.34;5091275;28;20003;-85
2023/07/02 17:07:55;;;;;;;13.88;7.93;;;;;;;23.33;100.00;94158.72;5091140;28;20370;-82
2023/07/02 17:10:20;;;;;;;11.98;7.97;;;;;;;23.37;100.00;94167.69;5090941;28;20030;-84
2023/07/02 17:12:46;;;;;;;7.38;6.68;;;;;;;23.39;100.00;94170.84;5109513;28;20023;-82
2023/07/02 17:15:11;;;;;;;7.90;6.25;;;;;;;23.29;100.00;94170.88;5108935;28;20031;-83
2023/07/02 17:17:37;;;;;;;10.10;7.65;;;;;;;23.20;100.00;94177.78;5109009;28;20416;-84
2023/07/02 17:20:03;;;;;;;7.88;7.10;;;;;;;23.02;100.00;94192.34;5109300;28;20396;-84
2023/07/02 17:22:30;;;;;;;7.57;6.97;;;;;;;22.97;100.00;94202.91;5108922;28;20206;-83
2023/07/02 17:24:58;;;;;;;8.20;7.40;;;;;;;22.92;100.00;94200.28;5090580;28;20114;-84
2023/07/02 17:27:26;;;;;;;9.50;7.25;;;;;;;22.93;100.00;94201.84;5090055;28;20585;-83
2023/07/02 17:29:55;;;;;;;8.52;7.72;;;;;;;22.95;100.00;94197.09;5090662;28;20519;-83
2023/07/02 17:32:21;;;;;;;7.72;7.03;;;;;;;22.84;100.00;94204.22;5090805;28;20080;-83
2023/07/02 17:34:46;;;;;;;8.75;7.18;;;;;;;22.73;100.00;94209.78;5090535;28;20031;-83
2023/07/02 17:37:14;;;;;;;8.90;6.55;;;;;;;22.71;100.00;94223.25;5090371;28;20142;-84
2023/07/02 17:39:40;;;;;;;7.45;6.75;;;;;;;22.57;100.00;94222.16;5108949;28;20122;-83
2023/07/02 17:42:06;;;;;;;8.13;7.20;;;;;;;22.48;100.00;94229.78;5108284;28;20494;-83
2023/07/02 17:44:36;;;;;;;8.63;7.72;;;;;;;22.35;100.00;94251.41;5108476;28;20030;-81
2023/07/02 17:47:04;;;;;;;8.73;7.95;;;;;;;22.00;100.00;94285.59;5090329;28;20028;-83
2023/07/02 17:49:31;;;;;;;7.72;7.03;;;;;;;22.03;100.00;94298.28;5090367;28;20103;-81
2023/07/02 17:51:56;;;;;;;9.40;7.78;;;;;;;21.82;100.00;94325.56;5073125;28;20114;-81
2023/07/02 17:54:22;;;;;;;9.10;8.30;;;;;;;21.90;100.00;94309.28;5089856;28;20197;-81
2023/07/02 17:56:49;;;;;;;7.38;6.68;;;;;;;21.85;100.00;94298.69;5090541;28;20031;-81
2023/07/02 17:59:16;;;;;;;7.82;7.03;;;;;;;21.85;100.00;94301.31;5108878;28;20504;-82
2023/07/02 18:01:43;;;;;;;9.55;7.50;;;;;;;21.79;100.00;94295.25;5108346;28;20400;-81
2023/07/02 18:04:09;;;;;;;8.38;7.68;;;;;;;21.42;100.00;94290.00;5073001;28;20042;-83
2023/07/02 18:06:35;;;;;;;8.73;6.93;;;;;;;21.44;100.00;94311.66;5090045;28;20020;-82
2023/07/02 18:09:00;;;;;;;8.65;7.72;;;;;;;21.33;100.00;94315.25;5090010;28;20024;-82
2023/07/02 18:11:26;;;;;;;8.52;7.72;;;;;;;21.38;100.00;94311.88;5107864;28;20502;-82
2023/07/02 18:13:51;;;;;;;8.35;7.65;;;;;;;21.45;100.00;94339.56;5108182;28;20023;-82
2023/07/02 18:16:16;;;;;;;9.25;8.20;;;;;;;21.41;100.00;94341.16;5108102;28;20486;-83
2023/07/02 18:18:42;;;;;;;7.70;7.10;;;;;;;21.32;100.00;94350.53;5108132;28;20026;-80
2023/07/02 18:21:08;;;;;;;8.40;7.68;;;;;;;21.25;100.00;94328.91;5108456;28;20030;-82
2023/07/02 18:23:33;;;;;;;10.07;8.27;;;;;;;21.21;100.00;94324.38;5107913;28;20038;-81
2023/07/02 18:25:59;;;;;;;9.93;8.35;;;;;;;20.92;100.00;94347.53;5108022;28;20023;-81
2023/07/02 18:28:25;;;;;;;10.63;7.97;;;;;;;20.74;100.00;94411.84;5108152;28;20387;-82